Yucca Valley, CA

10:44 PM PDT on July 24, 2016 (GMT -0700)
SKY HARBOR | | Change Station

Elev 3615 ft 34.10 °N, 116.39 °W | Updated 4 hours ago

Scattered Clouds
Scattered Clouds
92.7 °F
Feels Like 91 °F
N
10.0
Wind Variable Wind from SSW
Gusts 23.0 mph

Today
High -- | Low -- °F
--% Chance of Precip.
Yesterday
High -- | Low -- °F
Precip. -- in
Pressure 29.82 in
Visibility 10.0 miles
Clouds Few 15000 ft
Scattered Clouds 25000 ft
Heat Index 91 °F
Dew Point 56 °F
Humidity 29%
Rainfall Not available.
Snow Depth Not available.
5:51 AM 7:52 PM
Waning Gibbous, 69% visible
METAR KNXP 250456Z 23014G21KT 10SM FEW150 SCT250 34/08 A2995 RMK AO2 SLP098 T03440083 $
Pressure 29.82 in
Visibility 10.0 miles
Clouds Few 15000 ft
Scattered Clouds 25000 ft
Heat Index 91 °F
Dew Point 56 °F
Humidity 29%
Rainfall Not available.
Snow Depth Not available.
5:51 AM 7:52 PM
Waning Gibbous, 69% visible
METAR KNXP 250456Z 23014G21KT 10SM FEW150 SCT250 34/08 A2995 RMK AO2 SLP098 T03440083 $

10-Day Weather Forecast

Almanac

Astronomy

Jul. 24, 2016 Rise Set
Actual Time
Civil Twilight
Nautical Twilight
Astronomical Twilight
Moon
Length of Visible Light
Length of Day
Tomorrow will be .
, % of the Moon is Illuminated

Today's Extremes

State Highs State Lows

Community

WunderPhotos

Upload Photos

1,927,274 photos uploaded!

WunderBlog® & News

Nearby

Air Quality

  Air Quality AQ Index Pollutant
Not available.

Snow Depth

Station Depth Elevation

Earthquake Activity

City Distance Mag. Time & Date
Minimum magnitude displayed is 2.5.

Coastal Water Temperatures

Place Temperature

Stations

Nearby Weather Stations

Station Location Temp. Windchill Dew Point Humidity Wind Precip. Elev Updated Type
                   

Watches & Warnings

There are currently no watches in effect.